Southbridge, MA

4:41 PM EDT on April 28, 2015 (GMT -0400)
Dennison Hill | | Change Station
CLOSE
Current Station
Personal Weather Station
Location: Southbridge, MA
Elevation: 784 ft
Nearby Weather Stations

Elev 784 ft 42.06 °N, 72.06 °W | Updated 32 seconds ago

Partly Cloudy
Partly Cloudy
61.7 °F
Feels Like 61.7 °F
N
5.1
Wind Variable Wind from North
Gusts 7.4 mph

Today
High -- | Low -- °F
--% Chance of Precip.
Yesterday
High -- | Low -- °F
Precip. -- in
5:48 AM 7:43 PM
Waxing Gibbous, 76% visible
Pressure 29.68 in
Visibility 10.0 miles
Clouds Scattered Clouds 7500 ft
Dew Point 30 °F
Humidity 30%
Rainfall 0.00 in
Snow Depth Not available.
UV 2.0 out of 12
Pollen 10.30 out of 12
Air Quality Not available.
Flu Activity Widespread
METAR KORH 281954Z 33013G23KT 10SM SCT075 16/M03 A2967 RMK AO2 PK WND 31031/1917 SLP048 T01561033

More Conditions Fewer Conditions

Pressure 29.68 in
Visibility 10.0 miles
Clouds Scattered Clouds 7500 ft
Dew Point 30 °F
Humidity 30%
Rainfall 0.00 in
Snow Depth Not available.
UV 2.0 out of 12
Pollen 10.30 out of 12
Air Quality Not available.
Flu Activity Widespread
METAR KORH 281954Z 33013G23KT 10SM SCT075 16/M03 A2967 RMK AO2 PK WND 31031/1917 SLP048 T01561033

More Conditions Fewer Conditions

10-Day Weather Forecast

Almanac

Astronomy

Apr. 28, 2015 Rise Set
Actual Time
Civil Twilight
Nautical Twilight
Astronomical Twilight
Moon
Length of Visible Light
Length of Day
Tomorrow will be .
, % of the Moon is Illuminated

Today's Extremes

State Highs State Lows

Community

WunderPhotos

Upload Photos

1,817,749 photos uploaded!

WunderBlogs® & News

Nearby

Air Quality

  Air Quality AQ Index Pollutant
Not available.

Snow Depth

Station Depth Elevation

Earthquake Activity

City Distance Mag. Time & Date
Minimum magnitude displayed is 2.5.

Coastal Water Temperatures

Place Temperature

Stations

Nearby Weather Stations

Station Location Temp. Windchill Dew Point Humidity Wind Precip. Elev Updated Type